sensor_id;sensor_type;location;lat;lon;timestamp;pressure;altitude;pressure_sealevel;temperature;humidity
68525;BME280;55524;51.380;13.372;2023-03-19T00:00:22;100362.16;;;6.59;78.47
68525;BME280;55524;51.380;13.372;2023-03-19T00:02:50;100351.81;;;6.53;78.95
68525;BME280;55524;51.380;13.372;2023-03-19T00:05:17;100353.63;;;6.50;79.61
68525;BME280;55524;51.380;13.372;2023-03-19T00:07:44;100358.78;;;6.54;79.55
68525;BME280;55524;51.380;13.372;2023-03-19T00:10:10;100363.19;;;6.52;79.19
68525;BME280;55524;51.380;13.372;2023-03-19T00:12:37;100357.94;;;6.52;79.74
68525;BME280;55524;51.380;13.372;2023-03-19T00:15:03;100360.63;;;6.49;79.56
68525;BME280;55524;51.380;13.372;2023-03-19T00:17:30;100361.41;;;6.54;79.78
68525;BME280;55524;51.380;13.372;2023-03-19T00:19:57;100353.38;;;6.60;79.73
68525;BME280;55524;51.380;13.372;2023-03-19T00:22:23;100357.75;;;6.61;79.64
68525;BME280;55524;51.380;13.372;2023-03-19T00:24:49;100355.94;;;6.63;79.33
68525;BME280;55524;51.380;13.372;2023-03-19T00:27:15;100359.44;;;6.64;78.98
68525;BME280;55524;51.380;13.372;2023-03-19T00:29:42;100351.47;;;6.67;78.50
68525;BME280;55524;51.380;13.372;2023-03-19T00:32:08;100348.00;;;6.67;78.98
68525;BME280;55524;51.380;13.372;2023-03-19T00:34:34;100346.09;;;6.73;78.28
68525;BME280;55524;51.380;13.372;2023-03-19T00:37:00;100350.28;;;6.82;77.64
68525;BME280;55524;51.380;13.372;2023-03-19T00:39:27;100348.63;;;6.78;77.62
68525;BME280;55524;51.380;13.372;2023-03-19T00:41:53;100352.84;;;6.83;77.52
68525;BME280;55524;51.380;13.372;2023-03-19T00:44:20;100354.63;;;6.83;77.95
68525;BME280;55524;51.380;13.372;2023-03-19T00:46:46;100353.69;;;6.85;77.30
68525;BME280;55524;51.380;13.372;2023-03-19T00:49:12;100360.78;;;6.82;78.13
68525;BME280;55524;51.380;13.372;2023-03-19T00:51:39;100360.00;;;6.77;77.93
68525;BME280;55524;51.380;13.372;2023-03-19T00:54:12;100353.72;;;6.84;78.22
68525;BME280;55524;51.380;13.372;2023-03-19T00:56:39;100353.69;;;6.85;77.75
68525;BME280;55524;51.380;13.372;2023-03-19T00:59:05;100354.56;;;6.86;78.49
68525;BME280;55524;51.380;13.372;2023-03-19T01:01:32;100352.59;;;6.94;78.00
68525;BME280;55524;51.380;13.372;2023-03-19T01:03:58;100358.06;;;6.85;77.86
68525;BME280;55524;51.380;13.372;2023-03-19T01:06:24;100357.94;;;6.91;78.41
68525;BME280;55524;51.380;13.372;2023-03-19T01:08:51;100354.56;;;6.86;78.83
68525;BME280;55524;51.380;13.372;2023-03-19T01:11:17;100345.84;;;6.84;78.89
68525;BME280;55524;51.380;13.372;2023-03-19T01:13:44;100348.25;;;6.93;78.94
68525;BME280;55524;51.380;13.372;2023-03-19T01:16:10;100349.38;;;6.83;79.51
68525;BME280;55524;51.380;13.372;2023-03-19T01:18:37;100348.16;;;6.96;78.96
68525;BME280;55524;51.380;13.372;2023-03-19T01:21:03;100350.97;;;6.88;79.33
68525;BME280;55524;51.380;13.372;2023-03-19T01:23:30;100348.25;;;6.93;78.82
68525;BME280;55524;51.380;13.372;2023-03-19T01:25:56;100353.59;;;6.90;79.53
68525;BME280;55524;51.380;13.372;2023-03-19T01:28:23;100355.38;;;6.88;79.82
68525;BME280;55524;51.380;13.372;2023-03-19T01:30:49;100353.72;;;6.84;80.66
68525;BME280;55524;51.380;13.372;2023-03-19T01:33:16;100352.84;;;6.83;80.28
68525;BME280;55524;51.380;13.372;2023-03-19T01:35:45;100357.88;;;6.93;79.89
68525;BME280;55524;51.380;13.372;2023-03-19T01:38:13;100352.72;;;6.89;79.59
68525;BME280;55524;51.380;13.372;2023-03-19T01:40:44;100348.22;;;6.95;79.19
68525;BME280;55524;51.380;13.372;2023-03-19T01:45:39;100334.91;;;7.01;78.58
68525;BME280;55524;51.380;13.372;2023-03-19T01:48:11;100330.19;;;7.15;77.74
68525;BME280;55524;51.380;13.372;2023-03-19T01:50:44;100325.66;;;7.20;77.32
68525;BME280;55524;51.380;13.372;2023-03-19T01:53:12;100317.59;;;7.28;77.00
68525;BME280;55524;51.380;13.372;2023-03-19T01:55:40;100315.09;;;7.23;77.08
68525;BME280;55524;51.380;13.372;2023-03-19T01:58:07;100310.78;;;7.21;76.72
68525;BME280;55524;51.380;13.372;2023-03-19T02:00:35;100313.38;;;7.22;77.01
68525;BME280;55524;51.380;13.372;2023-03-19T02:03:03;100304.50;;;7.26;76.75
68525;BME280;55524;51.380;13.372;2023-03-19T02:05:30;100304.56;;;7.23;76.64
68525;BME280;55524;51.380;13.372;2023-03-19T02:07:59;100306.28;;;7.24;76.17
68525;BME280;55524;51.380;13.372;2023-03-19T02:10:28;100310.00;;;7.17;76.79
68525;BME280;55524;51.380;13.372;2023-03-19T02:12:56;100317.91;;;7.15;76.88
68525;BME280;55524;51.380;13.372;2023-03-19T02:15:22;100317.91;;;7.15;76.87
68525;BME280;55524;51.380;13.372;2023-03-19T02:17:48;100310.69;;;7.24;76.62
68525;BME280;55524;51.380;13.372;2023-03-19T02:23:13;100312.44;;;7.25;76.27
68525;BME280;55524;51.380;13.372;2023-03-19T02:28:15;100304.56;;;7.25;75.44
68525;BME280;55524;51.380;13.372;2023-03-19T02:30:44;100306.28;;;7.26;76.08
68525;BME280;55524;51.380;13.372;2023-03-19T02:33:16;100311.84;;;7.13;76.62
68525;BME280;55524;51.380;13.372;2023-03-19T02:35:45;100312.03;;;7.06;77.20
68525;BME280;55524;51.380;13.372;2023-03-19T02:38:13;100317.47;;;6.98;77.05
68525;BME280;55524;51.380;13.372;2023-03-19T02:41:04;100329.09;;;6.88;78.28
68525;BME280;55524;51.380;13.372;2023-03-19T02:43:32;100335.44;;;6.79;78.77
68525;BME280;55524;51.380;13.372;2023-03-19T02:46:03;100337.34;;;6.73;78.53
68525;BME280;55524;51.380;13.372;2023-03-19T02:48:30;100338.22;;;6.73;78.42
68525;BME280;55524;51.380;13.372;2023-03-19T02:50:57;100332.13;;;6.71;78.09
68525;BME280;55524;51.380;13.372;2023-03-19T02:53:24;100338.25;;;6.72;78.79
68525;BME280;55524;51.380;13.372;2023-03-19T02:55:50;100338.97;;;6.78;78.82
68525;BME280;55524;51.380;13.372;2023-03-19T02:58:17;100347.03;;;6.69;78.18
68525;BME280;55524;51.380;13.372;2023-03-19T03:00:44;100345.31;;;6.68;78.13
68525;BME280;55524;51.380;13.372;2023-03-19T03:03:10;100329.25;;;6.82;77.69
68525;BME280;55524;51.380;13.372;2023-03-19T03:05:37;100330.91;;;6.86;77.36
68525;BME280;55524;51.380;13.372;2023-03-19T03:08:03;100335.31;;;6.84;77.49
68525;BME280;55524;51.380;13.372;2023-03-19T03:10:31;100338.03;;;6.81;77.37
68525;BME280;55524;51.380;13.372;2023-03-19T03:12:58;100337.22;;;6.79;77.09
68525;BME280;55524;51.380;13.372;2023-03-19T03:15:24;100337.34;;;6.73;77.59
68525;BME280;55524;51.380;13.372;2023-03-19T03:17:50;100326.66;;;6.80;77.02
68525;BME280;55524;51.380;13.372;2023-03-19T03:20:17;100328.59;;;6.74;77.33
68525;BME280;55524;51.380;13.372;2023-03-19T03:22:45;100324.03;;;6.80;76.93
68525;BME280;55524;51.380;13.372;2023-03-19T03:25:11;100325.69;;;6.84;76.67
68525;BME280;55524;51.380;13.372;2023-03-19T03:27:38;100327.44;;;6.84;77.03
68525;BME280;55524;51.380;13.372;2023-03-19T03:30:06;100322.13;;;6.87;76.19
68525;BME280;55524;51.380;13.372;2023-03-19T03:32:34;100318.66;;;6.85;77.02
68525;BME280;55524;51.380;13.372;2023-03-19T03:35:01;100316.03;;;6.85;76.15
68525;BME280;55524;51.380;13.372;2023-03-19T03:37:29;100319.44;;;6.90;75.38
68525;BME280;55524;51.380;13.372;2023-03-19T03:39:55;100322.97;;;6.89;75.75
68525;BME280;55524;51.380;13.372;2023-03-19T03:42:22;100331.66;;;6.91;75.53
68525;BME280;55524;51.380;13.372;2023-03-19T03:44:48;100320.34;;;6.89;75.49
68525;BME280;55524;51.380;13.372;2023-03-19T03:47:14;100342.13;;;6.93;75.62
68525;BME280;55524;51.380;13.372;2023-03-19T03:49:43;100336.84;;;6.94;75.17
68525;BME280;55524;51.380;13.372;2023-03-19T03:52:09;100341.41;;;6.86;75.41
68525;BME280;55524;51.380;13.372;2023-03-19T03:54:36;100347.53;;;6.86;75.97
68525;BME280;55524;51.380;13.372;2023-03-19T03:57:02;100355.44;;;6.85;76.17
68525;BME280;55524;51.380;13.372;2023-03-19T03:59:28;100358.28;;;6.76;76.65
68525;BME280;55524;51.380;13.372;2023-03-19T04:01:54;100355.59;;;6.79;76.74
68525;BME280;55524;51.380;13.372;2023-03-19T04:04:21;100345.88;;;6.82;76.55
68525;BME280;55524;51.380;13.372;2023-03-19T04:06:47;100338.06;;;6.79;76.45
68525;BME280;55524;51.380;13.372;2023-03-19T04:09:13;100327.31;;;6.90;76.56
68525;BME280;55524;51.380;13.372;2023-03-19T04:11:41;100332.69;;;6.84;76.47
68525;BME280;55524;51.380;13.372;2023-03-19T04:14:07;100332.75;;;6.81;76.51
68525;BME280;55524;51.380;13.372;2023-03-19T04:16:33;100339.66;;;6.85;75.96
68525;BME280;55524;51.380;13.372;2023-03-19T04:19:00;100330.91;;;6.86;76.29
68525;BME280;55524;51.380;13.372;2023-03-19T04:21:26;100336.13;;;6.87;76.12
68525;BME280;55524;51.380;13.372;2023-03-19T04:23:53;100332.63;;;6.87;76.08
68525;BME280;55524;51.380;13.372;2023-03-19T04:26:19;100331.78;;;6.85;76.57
68525;BME280;55524;51.380;13.372;2023-03-19T04:28:46;100337.94;;;6.84;76.78
68525;BME280;55524;51.380;13.372;2023-03-19T04:31:12;100339.78;;;6.82;76.49
68525;BME280;55524;51.380;13.372;2023-03-19T04:33:38;100337.88;;;6.87;76.49
68525;BME280;55524;51.380;13.372;2023-03-19T04:36:05;100346.88;;;6.77;77.24
68525;BME280;55524;51.380;13.372;2023-03-19T04:38:32;100347.81;;;6.74;77.06
68525;BME280;55524;51.380;13.372;2023-03-19T04:40:58;100349.53;;;6.75;77.44
68525;BME280;55524;51.380;13.372;2023-03-19T04:43:25;100339.91;;;6.76;77.48
68525;BME280;55524;51.380;13.372;2023-03-19T04:45:51;100346.88;;;6.77;77.33
68525;BME280;55524;51.380;13.372;2023-03-19T04:48:17;100348.69;;;6.75;77.00
68525;BME280;55524;51.380;13.372;2023-03-19T04:50:44;100346.13;;;6.72;77.35
68525;BME280;55524;51.380;13.372;2023-03-19T04:53:12;100348.69;;;6.75;77.20
68525;BME280;55524;51.380;13.372;2023-03-19T04:55:38;100346.00;;;6.76;77.66
68525;BME280;55524;51.380;13.372;2023-03-19T04:58:04;100350.44;;;6.74;77.29
68525;BME280;55524;51.380;13.372;2023-03-19T05:00:31;100355.03;;;6.66;78.42
68525;BME280;55524;51.380;13.372;2023-03-19T05:02:58;100350.63;;;6.67;78.49
68525;BME280;55524;51.380;13.372;2023-03-19T05:05:24;100347.03;;;6.71;77.97
68525;BME280;55524;51.380;13.372;2023-03-19T05:07:50;100342.47;;;6.79;78.27
68525;BME280;55524;51.380;13.372;2023-03-19T05:10:17;100350.44;;;6.74;78.21
68525;BME280;55524;51.380;13.372;2023-03-19T05:12:43;100350.41;;;6.76;77.77
68525;BME280;55524;51.380;13.372;2023-03-19T05:15:10;100345.22;;;6.73;78.07
68525;BME280;55524;51.380;13.372;2023-03-19T05:17:36;100355.81;;;6.70;78.28
68525;BME280;55524;51.380;13.372;2023-03-19T05:20:03;100348.88;;;6.67;78.11
68525;BME280;55524;51.380;13.372;2023-03-19T05:22:30;100355.72;;;6.73;78.05
68525;BME280;55524;51.380;13.372;2023-03-19T05:24:56;100350.44;;;6.74;78.44
68525;BME280;55524;51.380;13.372;2023-03-19T05:27:23;100352.34;;;6.68;78.31
68525;BME280;55524;51.380;13.372;2023-03-19T05:29:49;100359.31;;;6.69;79.43
68525;BME280;55524;51.380;13.372;2023-03-19T05:32:15;100365.38;;;6.72;78.85
68525;BME280;55524;51.380;13.372;2023-03-19T05:34:42;100368.84;;;6.74;79.22
68525;BME280;55524;51.380;13.372;2023-03-19T05:37:08;100370.59;;;6.74;79.01
68525;BME280;55524;51.380;13.372;2023-03-19T05:39:34;100366.34;;;6.68;79.61
68525;BME280;55524;51.380;13.372;2023-03-19T05:42:01;100361.75;;;6.76;78.67
68525;BME280;55524;51.380;13.372;2023-03-19T05:44:27;100355.53;;;6.80;79.16
68525;BME280;55524;51.380;13.372;2023-03-19T05:46:55;100355.53;;;6.80;79.02
68525;BME280;55524;51.380;13.372;2023-03-19T05:49:22;100351.88;;;6.89;77.89
68525;BME280;55524;51.380;13.372;2023-03-19T05:51:48;100349.91;;;6.97;77.56
68525;BME280;55524;51.380;13.372;2023-03-19T05:54:14;100348.16;;;6.98;77.18
68525;BME280;55524;51.380;13.372;2023-03-19T05:56:41;100346.41;;;6.97;77.11
68525;BME280;55524;51.380;13.372;2023-03-19T05:59:07;100351.63;;;6.98;76.90
68525;BME280;55524;51.380;13.372;2023-03-19T06:01:33;100362.06;;;7.01;77.48
68525;BME280;55524;51.380;13.372;2023-03-19T06:03:59;100360.06;;;7.11;76.01
68525;BME280;55524;51.380;13.372;2023-03-19T06:06:26;100360.91;;;7.13;75.87
68525;BME280;55524;51.380;13.372;2023-03-19T06:08:52;100359.25;;;7.09;76.05
68525;BME280;55524;51.380;13.372;2023-03-19T06:11:18;100357.31;;;7.15;75.65
68525;BME280;55524;51.380;13.372;2023-03-19T06:13:45;100360.81;;;7.16;75.76
68525;BME280;55524;51.380;13.372;2023-03-19T06:16:12;100352.00;;;7.19;74.61
68525;BME280;55524;51.380;13.372;2023-03-19T06:18:39;100338.59;;;7.29;73.50
68525;BME280;55524;51.380;13.372;2023-03-19T06:21:06;100346.38;;;7.34;73.23
68525;BME280;55524;51.380;13.372;2023-03-19T06:23:32;100354.19;;;7.37;72.94
68525;BME280;55524;51.380;13.372;2023-03-19T06:25:58;100357.81;;;7.31;74.35
68525;BME280;55524;51.380;13.372;2023-03-19T06:28:25;100358.59;;;7.35;73.64
68525;BME280;55524;51.380;13.372;2023-03-19T06:30:54;100360.28;;;7.37;74.18
68525;BME280;55524;51.380;13.372;2023-03-19T06:33:21;100369.84;;;7.40;74.13
68525;BME280;55524;51.380;13.372;2023-03-19T06:35:48;100368.78;;;7.47;73.95
68525;BME280;55524;51.380;13.372;2023-03-19T06:38:14;100375.69;;;7.53;74.26
68525;BME280;55524;51.380;13.372;2023-03-19T06:40:40;100368.53;;;7.58;74.10
68525;BME280;55524;51.380;13.372;2023-03-19T06:43:07;100363.66;;;7.75;72.65
68525;BME280;55524;51.380;13.372;2023-03-19T06:45:33;100367.00;;;7.82;72.59
68525;BME280;55524;51.380;13.372;2023-03-19T06:48:00;100372.91;;;7.90;72.37
68525;BME280;55524;51.380;13.372;2023-03-19T06:50:26;100362.03;;;8.02;71.36
68525;BME280;55524;51.380;13.372;2023-03-19T06:52:52;100363.59;;;8.09;71.15
68525;BME280;55524;51.380;13.372;2023-03-19T06:55:18;100372.97;;;8.20;71.62
68525;BME280;55524;51.380;13.372;2023-03-19T06:57:49;100382.44;;;8.25;71.40
68525;BME280;55524;51.380;13.372;2023-03-19T07:00:17;100377.69;;;8.40;71.47
68525;BME280;55524;51.380;13.372;2023-03-19T07:02:44;100380.22;;;8.43;71.86
68525;BME280;55524;51.380;13.372;2023-03-19T07:05:10;100375.47;;;8.55;71.26
68525;BME280;55524;51.380;13.372;2023-03-19T07:07:37;100365.41;;;8.68;70.61
68525;BME280;55524;51.380;13.372;2023-03-19T07:10:03;100368.34;;;8.87;70.32
68525;BME280;55524;51.380;13.372;2023-03-19T07:12:30;100351.13;;;9.03;68.10
68525;BME280;55524;51.380;13.372;2023-03-19T07:14:57;100353.44;;;9.13;68.08
68525;BME280;55524;51.380;13.372;2023-03-19T07:17:24;100351.34;;;9.22;67.97
68525;BME280;55524;51.380;13.372;2023-03-19T07:19:50;100352.84;;;9.31;67.01
68525;BME280;55524;51.380;13.372;2023-03-19T07:22:17;100347.75;;;9.51;67.35
68525;BME280;55524;51.380;13.372;2023-03-19T07:24:44;100347.09;;;9.70;66.49
68525;BME280;55524;51.380;13.372;2023-03-19T07:27:13;100334.09;;;9.89;64.23
68525;BME280;55524;51.380;13.372;2023-03-19T07:29:40;100331.28;;;10.17;64.37
68525;BME280;55524;51.380;13.372;2023-03-19T07:32:07;100326.66;;;10.23;63.61
68525;BME280;55524;51.380;13.372;2023-03-19T07:34:34;100330.66;;;10.35;62.96
68525;BME280;55524;51.380;13.372;2023-03-19T07:37:00;100325.16;;;10.63;61.97
68525;BME280;55524;51.380;13.372;2023-03-19T07:39:26;100318.41;;;10.78;61.17
68525;BME280;55524;51.380;13.372;2023-03-19T07:41:53;100318.84;;;10.89;60.63
68525;BME280;55524;51.380;13.372;2023-03-19T07:44:19;100317.91;;;10.90;60.43
68525;BME280;55524;51.380;13.372;2023-03-19T07:46:45;100306.53;;;11.08;60.33
68525;BME280;55524;51.380;13.372;2023-03-19T07:49:12;100304.59;;;11.34;59.83
68525;BME280;55524;51.380;13.372;2023-03-19T07:51:38;100308.63;;;11.22;60.13
68525;BME280;55524;51.380;13.372;2023-03-19T07:54:04;100316.03;;;11.14;60.63
68525;BME280;55524;51.380;13.372;2023-03-19T07:56:31;100317.63;;;11.18;60.62
68525;BME280;55524;51.380;13.372;2023-03-19T07:58:58;100311.50;;;11.16;59.77
68525;BME280;55524;51.380;13.372;2023-03-19T08:01:25;100327.97;;;11.02;61.31
68525;BME280;55524;51.380;13.372;2023-03-19T08:03:51;100339.72;;;10.95;62.17
68525;BME280;55524;51.380;13.372;2023-03-19T08:06:18;100343.41;;;10.91;62.21
68525;BME280;55524;51.380;13.372;2023-03-19T08:08:44;100336.75;;;11.03;61.65
68525;BME280;55524;51.380;13.372;2023-03-19T08:11:10;100334.44;;;10.95;61.56
68525;BME280;55524;51.380;13.372;2023-03-19T08:13:37;100329.81;;;11.00;60.96
68525;BME280;55524;51.380;13.372;2023-03-19T08:16:03;100319.06;;;11.05;60.99
68525;BME280;55524;51.380;13.372;2023-03-19T08:18:30;100317.00;;;11.12;60.53
68525;BME280;55524;51.380;13.372;2023-03-19T08:20:56;100321.25;;;11.16;60.57
68525;BME280;55524;51.380;13.372;2023-03-19T08:23:22;100318.97;;;11.06;60.89
68525;BME280;55524;51.380;13.372;2023-03-19T08:25:49;100310.66;;;11.16;60.58
68525;BME280;55524;51.380;13.372;2023-03-19T08:28:17;100310.66;;;11.16;60.31
68525;BME280;55524;51.380;13.372;2023-03-19T08:30:43;100317.81;;;11.34;60.56
68525;BME280;55524;51.380;13.372;2023-03-19T08:33:10;100318.16;;;11.26;61.50
68525;BME280;55524;51.380;13.372;2023-03-19T08:35:36;100305.94;;;11.44;60.48
68525;BME280;55524;51.380;13.372;2023-03-19T08:38:02;100304.59;;;11.54;59.75
68525;BME280;55524;51.380;13.372;2023-03-19T08:40:29;100299.50;;;11.70;60.39
68525;BME280;55524;51.380;13.372;2023-03-19T08:42:55;100289.97;;;11.87;59.42
68525;BME280;55524;51.380;13.372;2023-03-19T08:45:22;100296.66;;;12.14;59.14
68525;BME280;55524;51.380;13.372;2023-03-19T08:47:49;100290.50;;;12.14;58.38
68525;BME280;55524;51.380;13.372;2023-03-19T08:50:16;100290.56;;;12.31;57.59
68525;BME280;55524;51.380;13.372;2023-03-19T08:52:42;100282.53;;;12.51;57.39
68525;BME280;55524;51.380;13.372;2023-03-19T08:55:09;100272.84;;;12.87;56.08
68525;BME280;55524;51.380;13.372;2023-03-19T08:57:36;100268.66;;;13.00;55.79
68525;BME280;55524;51.380;13.372;2023-03-19T09:00:06;100286.84;;;13.08;56.86
68525;BME280;55524;51.380;13.372;2023-03-19T09:02:32;100287.06;;;13.20;55.97
68525;BME280;55524;51.380;13.372;2023-03-19T09:04:59;100275.44;;;13.05;56.53
68525;BME280;55524;51.380;13.372;2023-03-19T09:07:25;100295.13;;;12.83;57.71
68525;BME280;55524;51.380;13.372;2023-03-19T09:09:52;100302.44;;;12.96;58.49
68525;BME280;55524;51.380;13.372;2023-03-19T09:12:18;100292.50;;;12.83;58.18
68525;BME280;55524;51.380;13.372;2023-03-19T09:14:44;100299.69;;;12.98;58.11
68525;BME280;55524;51.380;13.372;2023-03-19T09:17:11;100301.56;;;12.96;58.94
68525;BME280;55524;51.380;13.372;2023-03-19T09:19:38;100301.50;;;12.97;59.07
68525;BME280;55524;51.380;13.372;2023-03-19T09:22:04;100301.72;;;13.10;58.52
68525;BME280;55524;51.380;13.372;2023-03-19T09:24:31;100297.59;;;13.22;58.24
68525;BME280;55524;51.380;13.372;2023-03-19T09:26:57;100284.84;;;13.47;56.68
68525;BME280;55524;51.380;13.372;2023-03-19T09:29:23;100285.75;;;13.64;56.37
68525;BME280;55524;51.380;13.372;2023-03-19T09:31:50;100287.91;;;13.73;56.97
68525;BME280;55524;51.380;13.372;2023-03-19T09:34:16;100285.78;;;14.13;56.42
68525;BME280;55524;51.380;13.372;2023-03-19T09:36:43;100273.34;;;14.29;54.44
68525;BME280;55524;51.380;13.372;2023-03-19T09:39:09;100281.44;;;14.59;55.00
68525;BME280;55524;51.380;13.372;2023-03-19T09:41:58;100276.66;;;14.50;54.59
68525;BME280;55524;51.380;13.372;2023-03-19T09:44:29;100271.91;;;14.71;53.87
68525;BME280;55524;51.380;13.372;2023-03-19T09:49:37;100258.19;;;15.09;52.96
68525;BME280;55524;51.380;13.372;2023-03-19T09:57:38;100281.09;;;15.11;54.22
68525;BME280;55524;51.380;13.372;2023-03-19T10:00:21;100252.75;;;15.40;52.18
68525;BME280;55524;51.380;13.372;2023-03-19T10:12:07;100230.44;;;16.68;49.56
68525;BME280;55524;51.380;13.372;2023-03-19T10:17:33;100229.78;;;16.65;48.99
68525;BME280;55524;51.380;13.372;2023-03-19T10:20:16;100218.09;;;17.20;48.08
68525;BME280;55524;51.380;13.372;2023-03-19T10:22:50;100231.38;;;16.94;48.26
68525;BME280;55524;51.380;13.372;2023-03-19T10:25:23;100249.78;;;16.72;50.19
68525;BME280;55524;51.380;13.372;2023-03-19T10:27:53;100240.53;;;16.78;49.19
68525;BME280;55524;51.380;13.372;2023-03-19T10:30:21;100270.56;;;16.94;51.47
68525;BME280;55524;51.380;13.372;2023-03-19T10:33:04;100262.47;;;16.95;50.49
68525;BME280;55524;51.380;13.372;2023-03-19T10:35:43;100254.66;;;17.32;49.63
68525;BME280;55524;51.380;13.372;2023-03-19T10:38:25;100243.50;;;17.13;49.06
68525;BME280;55524;51.380;13.372;2023-03-19T10:43:55;100258.56;;;17.14;49.74
68525;BME280;55524;51.380;13.372;2023-03-19T10:46:23;100248.63;;;17.03;49.34
68525;BME280;55524;51.380;13.372;2023-03-19T10:48:50;100253.34;;;17.12;49.81
68525;BME280;55524;51.380;13.372;2023-03-19T10:51:21;100249.03;;;17.10;50.03
68525;BME280;55524;51.380;13.372;2023-03-19T10:53:52;100275.63;;;17.38;52.08
68525;BME280;55524;51.380;13.372;2023-03-19T10:56:19;100265.59;;;17.02;51.12
68525;BME280;55524;51.380;13.372;2023-03-19T11:01:27;100267.84;;;16.54;51.83
68525;BME280;55524;51.380;13.372;2023-03-19T11:03:58;100279.41;;;16.82;52.60
68525;BME280;55524;51.380;13.372;2023-03-19T11:06:39;100268.56;;;16.98;51.85
68525;BME280;55524;51.380;13.372;2023-03-19T11:11:42;100255.81;;;17.28;50.31
68525;BME280;55524;51.380;13.372;2023-03-19T11:14:14;100276.06;;;17.70;52.33
68525;BME280;55524;51.380;13.372;2023-03-19T11:16:55;100257.44;;;17.69;50.01
68525;BME280;55524;51.380;13.372;2023-03-19T11:19:38;100245.13;;;18.05;49.61
68525;BME280;55524;51.380;13.372;2023-03-19T11:22:13;100253.06;;;17.93;49.91
68525;BME280;55524;51.380;13.372;2023-03-19T11:27:18;100231.78;;;18.29;49.20
68525;BME280;55524;51.380;13.372;2023-03-19T11:29:45;100251.84;;;18.23;50.42
68525;BME280;55524;51.380;13.372;2023-03-19T11:46:31;100217.44;;;18.90;48.37
68525;BME280;55524;51.380;13.372;2023-03-19T11:52:02;100208.31;;;18.69;48.14
68525;BME280;55524;51.380;13.372;2023-03-19T12:06:35;100228.19;;;18.54;49.81
68525;BME280;55524;51.380;13.372;2023-03-19T12:20:22;100187.00;;;19.49;47.80
68525;BME280;55524;51.380;13.372;2023-03-19T12:23:04;100179.31;;;19.45;46.58
68525;BME280;55524;51.380;13.372;2023-03-19T12:25:57;100187.22;;;18.88;47.09
68525;BME280;55524;51.380;13.372;2023-03-19T12:29:03;100191.81;;;18.75;48.01
68525;BME280;55524;51.380;13.372;2023-03-19T12:34:11;100207.31;;;18.83;49.67
68525;BME280;55524;51.380;13.372;2023-03-19T12:36:49;100199.19;;;18.96;48.59
68525;BME280;55524;51.380;13.372;2023-03-19T12:39:25;100198.88;;;18.76;48.98
68525;BME280;55524;51.380;13.372;2023-03-19T12:41:54;100191.09;;;18.84;48.35
68525;BME280;55524;51.380;13.372;2023-03-19T12:44:33;100191.06;;;19.08;48.71
68525;BME280;55524;51.380;13.372;2023-03-19T12:47:12;100188.19;;;18.87;48.56
68525;BME280;55524;51.380;13.372;2023-03-19T12:49:55;100184.19;;;19.28;47.72
68525;BME280;55524;51.380;13.372;2023-03-19T12:52:34;100167.75;;;19.89;46.27
68525;BME280;55524;51.380;13.372;2023-03-19T13:00:31;100195.22;;;19.24;48.08
68525;BME280;55524;51.380;13.372;2023-03-19T13:06:08;100199.94;;;18.98;49.29
68525;BME280;55524;51.380;13.372;2023-03-19T13:08:44;100209.47;;;19.13;50.24
68525;BME280;55524;51.380;13.372;2023-03-19T13:11:33;100239.28;;;19.08;52.75
68525;BME280;55524;51.380;13.372;2023-03-19T13:14:04;100220.81;;;18.44;50.48
68525;BME280;55524;51.380;13.372;2023-03-19T13:16:33;100245.78;;;17.57;53.25
68525;BME280;55524;51.380;13.372;2023-03-19T13:19:20;100254.13;;;17.65;54.09
68525;BME280;55524;51.380;13.372;2023-03-19T13:21:52;100263.00;;;17.53;54.78
68525;BME280;55524;51.380;13.372;2023-03-19T13:24:26;100265.13;;;17.74;54.57
68525;BME280;55524;51.380;13.372;2023-03-19T13:26:55;100267.06;;;17.59;54.92
68525;BME280;55524;51.380;13.372;2023-03-19T13:29:29;100270.28;;;17.51;55.17
68525;BME280;55524;51.380;13.372;2023-03-19T13:32:04;100267.03;;;17.33;54.84
68525;BME280;55524;51.380;13.372;2023-03-19T13:34:34;100281.53;;;17.16;55.65
68525;BME280;55524;51.380;13.372;2023-03-19T13:37:22;100279.84;;;17.28;55.23
68525;BME280;55524;51.380;13.372;2023-03-19T13:39:49;100280.97;;;17.38;56.10
68525;BME280;55524;51.380;13.372;2023-03-19T13:42:37;100281.38;;;17.45;56.20
68525;BME280;55524;51.380;13.372;2023-03-19T13:47:57;100286.69;;;17.19;56.27
68525;BME280;55524;51.380;13.372;2023-03-19T13:50:30;100279.00;;;17.15;56.57
68525;BME280;55524;51.380;13.372;2023-03-19T13:53:21;100297.69;;;16.88;58.81
68525;BME280;55524;51.380;13.372;2023-03-19T13:56:14;100306.91;;;16.96;59.70
68525;BME280;55524;51.380;13.372;2023-03-19T13:58:50;100289.38;;;16.92;57.78
68525;BME280;55524;51.380;13.372;2023-03-19T14:03:58;100301.28;;;17.14;58.78
68525;BME280;55524;51.380;13.372;2023-03-19T14:09:36;100289.66;;;17.15;58.15
68525;BME280;55524;51.380;13.372;2023-03-19T14:17:37;100287.53;;;17.20;57.61
68525;BME280;55524;51.380;13.372;2023-03-19T14:26:17;100277.94;;;16.90;57.33
68525;BME280;55524;51.380;13.372;2023-03-19T14:31:50;100271.81;;;17.03;57.77
68525;BME280;55524;51.380;13.372;2023-03-19T14:34:21;100270.63;;;17.07;57.15
68525;BME280;55524;51.380;13.372;2023-03-19T14:37:13;100289.75;;;17.13;59.12
68525;BME280;55524;51.380;13.372;2023-03-19T14:39:43;100277.22;;;17.01;57.85
68525;BME280;55524;51.380;13.372;2023-03-19T14:55:37;100380.72;;;15.83;68.62
68525;BME280;55524;51.380;13.372;2023-03-19T14:58:04;100381.84;;;15.79;68.71
68525;BME280;55524;51.380;13.372;2023-03-19T15:00:46;100390.69;;;15.65;69.39